createdAt,value
2023-03-12T00:01:18.164Z,11.18
2023-03-12T00:03:45.213Z,11.05
2023-03-12T00:06:11.905Z,11.12
2023-03-12T00:08:38.835Z,11.02
2023-03-12T00:11:07.623Z,11.08
2023-03-12T00:13:34.022Z,11.21
2023-03-12T00:16:08.653Z,11.20
2023-03-12T00:18:35.136Z,11.23
2023-03-12T00:21:01.824Z,11.01
2023-03-12T00:23:28.245Z,10.87
2023-03-12T00:25:54.613Z,10.87
2023-03-12T00:28:21.057Z,10.74
2023-03-12T00:30:47.485Z,10.94
2023-03-12T00:33:13.902Z,10.73
2023-03-12T00:35:40.414Z,10.68
2023-03-12T00:38:06.845Z,10.81
2023-03-12T00:40:33.238Z,10.68
2023-03-12T00:42:59.622Z,10.37
2023-03-12T00:45:26.040Z,10.37
2023-03-12T00:47:52.540Z,10.41
2023-03-12T00:50:19.002Z,10.60
2023-03-12T00:52:45.406Z,10.71
2023-03-12T00:55:11.807Z,10.61
2023-03-12T00:57:38.236Z,10.66
2023-03-12T01:00:10.147Z,10.62
2023-03-12T01:02:38.226Z,10.54
2023-03-12T01:05:06.384Z,10.36
2023-03-12T01:07:33.000Z,10.27
2023-03-12T01:09:59.652Z,10.18
2023-03-12T01:12:26.258Z,10.16
2023-03-12T01:14:52.747Z,10.28
2023-03-12T01:17:19.275Z,10.35
2023-03-12T01:19:45.761Z,10.21
2023-03-12T01:22:12.140Z,10.19
2023-03-12T01:24:38.536Z,10.15
2023-03-12T01:27:05.062Z,10.19
2023-03-12T01:29:31.439Z,10.32
2023-03-12T01:31:57.895Z,10.23
2023-03-12T01:34:24.299Z,10.38
2023-03-12T01:36:50.731Z,10.44
2023-03-12T01:39:17.212Z,10.45
2023-03-12T01:41:43.665Z,10.49
2023-03-12T01:44:14.677Z,10.48
2023-03-12T01:46:43.805Z,10.35
2023-03-12T01:49:19.208Z,10.37
2023-03-12T01:51:46.738Z,10.31
2023-03-12T01:54:20.034Z,10.36
2023-03-12T01:56:47.682Z,10.48
2023-03-12T01:59:28.556Z,10.40
2023-03-12T02:01:55.302Z,10.55
2023-03-12T02:04:25.558Z,10.50
2023-03-12T02:07:05.959Z,10.24
2023-03-12T02:09:34.835Z,10.23
2023-03-12T02:12:01.242Z,10.11
2023-03-12T02:14:27.824Z,10.19
2023-03-12T02:16:55.583Z,10.13
2023-03-12T02:19:59.759Z,9.92
2023-03-12T02:22:26.570Z,10.00
2023-03-12T02:25:06.639Z,9.87
2023-03-12T02:27:36.049Z,9.70
2023-03-12T02:30:04.677Z,9.50
2023-03-12T02:32:36.134Z,9.49
2023-03-12T02:35:04.034Z,9.58
2023-03-12T02:37:30.429Z,9.58
2023-03-12T02:40:05.858Z,9.51
2023-03-12T02:42:33.318Z,9.46
2023-03-12T02:45:00.880Z,9.42
2023-03-12T02:47:27.501Z,9.36
2023-03-12T02:49:53.948Z,9.38
2023-03-12T02:52:20.356Z,9.24
2023-03-12T02:54:46.934Z,9.18
2023-03-12T02:57:13.389Z,9.15
2023-03-12T02:59:39.744Z,9.13
2023-03-12T03:02:06.965Z,9.15
2023-03-12T03:04:34.905Z,9.19
2023-03-12T03:07:01.559Z,9.13
2023-03-12T03:09:28.503Z,9.17
2023-03-12T03:11:54.872Z,9.08
2023-03-12T03:14:21.312Z,9.03
2023-03-12T03:16:47.686Z,8.98
2023-03-12T03:19:14.115Z,8.89
2023-03-12T03:21:40.578Z,8.86
2023-03-12T03:24:07.186Z,8.83
2023-03-12T03:26:33.578Z,8.81
2023-03-12T03:28:59.962Z,8.85
2023-03-12T03:31:26.452Z,8.78
2023-03-12T03:33:52.961Z,8.63
2023-03-12T03:36:19.474Z,8.91
2023-03-12T03:38:49.250Z,8.86
2023-03-12T03:41:17.687Z,8.67
2023-03-12T03:43:44.382Z,8.68
2023-03-12T03:46:12.618Z,8.73
2023-03-12T03:48:39.236Z,8.98
2023-03-12T03:51:10.293Z,8.87
2023-03-12T03:53:36.942Z,8.64
2023-03-12T03:56:12.512Z,8.40
2023-03-12T03:58:38.893Z,8.39
2023-03-12T04:01:06.178Z,8.35
2023-03-12T04:03:33.588Z,8.37
2023-03-12T04:06:02.076Z,8.50
2023-03-12T04:08:28.968Z,8.55
2023-03-12T04:10:55.721Z,8.58
2023-03-12T04:13:22.118Z,8.60
2023-03-12T04:15:50.606Z,8.46
2023-03-12T04:18:17.601Z,8.51
2023-03-12T04:20:44.413Z,8.36
2023-03-12T04:23:11.474Z,8.44
2023-03-12T04:25:38.620Z,8.44
2023-03-12T04:28:05.840Z,8.38
2023-03-12T04:30:32.373Z,8.37
2023-03-12T04:32:58.864Z,8.29
2023-03-12T04:35:25.271Z,8.24
2023-03-12T04:37:52.047Z,8.17
2023-03-12T04:40:19.906Z,8.18
2023-03-12T04:42:46.555Z,8.24
2023-03-12T04:45:13.032Z,8.19
2023-03-12T04:47:39.416Z,8.18
2023-03-12T04:50:06.500Z,8.65
2023-03-12T04:52:32.922Z,8.41
2023-03-12T04:55:00.432Z,8.39
2023-03-12T04:57:26.874Z,8.10
2023-03-12T04:59:53.654Z,8.19
2023-03-12T05:02:20.044Z,8.05
2023-03-12T05:04:46.411Z,7.88
2023-03-12T05:07:12.863Z,7.98
2023-03-12T05:09:39.235Z,7.99
2023-03-12T05:12:06.110Z,7.92
2023-03-12T05:14:32.474Z,7.99
2023-03-12T05:16:58.882Z,7.95
2023-03-12T05:19:25.238Z,7.84
2023-03-12T05:21:51.767Z,7.88
2023-03-12T05:24:19.034Z,7.85
2023-03-12T05:26:45.462Z,7.93
2023-03-12T05:29:11.823Z,8.07
2023-03-12T05:31:38.251Z,8.24
2023-03-12T05:34:05.396Z,7.94
2023-03-12T05:36:31.979Z,7.72
2023-03-12T05:38:58.372Z,7.65
2023-03-12T05:41:29.540Z,7.68
2023-03-12T05:43:57.531Z,7.71
2023-03-12T05:46:25.316Z,7.71
2023-03-12T05:48:52.175Z,7.73
2023-03-12T05:51:18.900Z,7.78
2023-03-12T05:53:45.539Z,7.78
2023-03-12T05:56:14.626Z,7.82
2023-03-12T05:58:41.038Z,7.78
2023-03-12T06:01:18.520Z,7.93
2023-03-12T06:03:45.875Z,7.84
2023-03-12T06:06:12.496Z,7.74
2023-03-12T06:08:40.071Z,7.66
2023-03-12T06:11:06.641Z,7.73
2023-03-12T06:13:33.702Z,7.92
2023-03-12T06:16:09.592Z,7.74
2023-03-12T06:18:36.143Z,7.53
2023-03-12T06:21:14.689Z,7.48
2023-03-12T06:23:42.118Z,7.52
2023-03-12T06:26:10.132Z,7.54
2023-03-12T06:28:37.134Z,7.61
2023-03-12T06:31:04.329Z,7.69
2023-03-12T06:33:31.912Z,7.68
2023-03-12T06:36:01.387Z,7.56
2023-03-12T06:38:28.598Z,7.77
2023-03-12T06:41:16.432Z,7.86
2023-03-12T06:43:43.968Z,7.92
2023-03-12T06:46:13.460Z,7.87
2023-03-12T06:48:41.474Z,7.84
2023-03-12T06:51:09.948Z,7.95
2023-03-12T06:53:36.624Z,8.09
2023-03-12T06:56:03.704Z,8.23
2023-03-12T06:58:30.624Z,8.31
2023-03-12T07:00:57.522Z,8.57
2023-03-12T07:03:24.436Z,8.81
2023-03-12T07:05:51.337Z,8.78
2023-03-12T07:08:18.693Z,8.84
2023-03-12T07:10:45.638Z,9.15
2023-03-12T07:13:13.024Z,8.94
2023-03-12T07:15:39.686Z,8.84
2023-03-12T07:18:09.697Z,8.98
2023-03-12T07:20:38.657Z,8.81
2023-03-12T07:23:05.694Z,9.05
2023-03-12T07:25:36.241Z,9.84
2023-03-12T07:28:02.841Z,10.06
2023-03-12T07:30:33.240Z,10.18
2023-03-12T07:33:11.675Z,10.36
2023-03-12T07:35:39.358Z,10.54
2023-03-12T07:38:06.177Z,10.34
2023-03-12T07:40:32.627Z,10.45
2023-03-12T07:42:59.068Z,10.35
2023-03-12T07:45:25.722Z,10.20
2023-03-12T07:47:52.242Z,10.13
2023-03-12T07:50:19.102Z,10.15
2023-03-12T07:52:46.859Z,10.19
2023-03-12T07:55:13.643Z,10.35
2023-03-12T07:57:40.213Z,10.42
2023-03-12T08:00:08.598Z,10.30
2023-03-12T08:02:35.070Z,10.29
2023-03-12T08:05:01.960Z,10.28
2023-03-12T08:07:32.546Z,10.41
2023-03-12T08:10:00.089Z,10.31
2023-03-12T08:12:27.187Z,10.28
2023-03-12T08:14:53.667Z,10.47
2023-03-12T08:17:20.489Z,10.45
2023-03-12T08:19:46.979Z,10.47
2023-03-12T08:22:13.429Z,10.44
2023-03-12T08:24:39.870Z,10.31
2023-03-12T08:27:06.269Z,10.34
2023-03-12T08:29:33.471Z,10.43
2023-03-12T08:32:05.011Z,10.50
2023-03-12T08:34:33.541Z,10.67
2023-03-12T08:37:00.034Z,10.72
2023-03-12T08:39:26.513Z,10.40
2023-03-12T08:41:55.681Z,10.42
2023-03-12T08:44:23.635Z,10.52
2023-03-12T08:46:51.328Z,10.60
2023-03-12T08:49:18.213Z,10.69
2023-03-12T08:51:44.666Z,10.66
2023-03-12T08:54:11.051Z,10.67
2023-03-12T08:56:41.776Z,10.76
2023-03-12T08:59:12.086Z,10.80
2023-03-12T09:01:40.664Z,10.93
2023-03-12T09:04:09.001Z,10.96
2023-03-12T09:06:35.530Z,11.00
2023-03-12T09:09:05.921Z,11.00
2023-03-12T09:11:34.071Z,11.14
2023-03-12T09:14:46.286Z,11.24
2023-03-12T09:16:48.032Z,11.28
2023-03-12T09:19:14.868Z,11.24
2023-03-12T09:21:41.410Z,11.32
2023-03-12T09:24:08.461Z,11.22
2023-03-12T09:26:34.974Z,11.30
2023-03-12T09:29:01.511Z,11.41
2023-03-12T09:31:28.283Z,11.43
2023-03-12T09:33:54.676Z,11.46
2023-03-12T09:36:21.090Z,11.43
2023-03-12T09:38:47.507Z,11.30
2023-03-12T09:41:36.604Z,11.37
2023-03-12T09:44:24.577Z,11.51
2023-03-12T09:46:56.490Z,11.61
2023-03-12T09:49:40.788Z,11.67
2023-03-12T09:52:33.412Z,11.80
2023-03-12T09:55:28.347Z,11.71
2023-03-12T09:57:56.701Z,11.81
2023-03-12T10:00:29.270Z,11.87
2023-03-12T10:03:10.613Z,11.91
2023-03-12T10:05:46.162Z,11.67
2023-03-12T10:08:27.450Z,11.78
2023-03-12T10:11:25.426Z,11.79
2023-03-12T10:14:31.361Z,11.93
2023-03-12T10:17:06.162Z,12.00
2023-03-12T10:19:57.209Z,12.06
2023-03-12T10:22:39.590Z,12.02
2023-03-12T10:25:41.103Z,12.15
2023-03-12T10:28:30.689Z,12.26
2023-03-12T10:31:01.320Z,12.28
2023-03-12T10:33:40.987Z,12.28
2023-03-12T10:36:18.827Z,12.28
2023-03-12T10:38:45.901Z,12.36
2023-03-12T10:41:28.606Z,12.39
2023-03-12T10:43:59.401Z,12.41
2023-03-12T10:46:37.721Z,12.34
2023-03-12T10:49:25.517Z,12.39
2023-03-12T10:52:17.998Z,12.51
2023-03-12T10:54:47.607Z,12.79
2023-03-12T10:57:15.651Z,12.79
2023-03-12T10:59:45.404Z,12.78
2023-03-12T11:02:31.947Z,12.72
2023-03-12T11:05:00.762Z,12.73
2023-03-12T11:07:31.616Z,12.78
2023-03-12T11:10:07.238Z,12.81
2023-03-12T11:12:36.325Z,12.81
2023-03-12T11:15:30.754Z,12.68
2023-03-12T11:18:19.267Z,12.72
2023-03-12T11:20:46.618Z,12.84
2023-03-12T11:23:25.997Z,13.00
2023-03-12T11:26:01.788Z,13.08
2023-03-12T11:28:43.664Z,13.18
2023-03-12T11:31:20.470Z,13.30
2023-03-12T11:33:46.951Z,13.34
2023-03-12T15:12:21.786Z,14.45
2023-03-12T15:14:51.758Z,14.48
2023-03-12T15:17:20.486Z,14.66
2023-03-12T15:19:48.434Z,14.63
2023-03-12T15:22:18.121Z,14.67
2023-03-12T15:24:44.996Z,14.71
2023-03-12T15:27:29.710Z,14.75
2023-03-12T15:29:58.283Z,14.73
2023-03-12T15:32:25.983Z,14.74
2023-03-12T15:34:55.509Z,14.72
2023-03-12T15:37:33.717Z,14.75
2023-03-12T15:40:06.876Z,14.77
2023-03-12T15:42:38.167Z,14.69
2023-03-12T15:45:05.149Z,14.70
2023-03-12T15:47:39.267Z,14.65
2023-03-12T15:50:30.208Z,14.58
2023-03-12T15:53:11.962Z,14.53
2023-03-12T15:55:39.432Z,14.48
2023-03-12T15:58:26.888Z,14.44
2023-03-12T16:00:53.437Z,14.47
2023-03-12T16:03:22.035Z,14.42
2023-03-12T16:05:50.206Z,14.39
2023-03-12T16:08:21.012Z,14.35
2023-03-12T16:10:50.742Z,14.31
2023-03-12T16:13:20.555Z,14.28
2023-03-12T16:15:48.117Z,14.28
2023-03-12T16:18:17.773Z,14.20
2023-03-12T16:20:45.282Z,14.10
2023-03-12T16:23:12.289Z,14.09
2023-03-12T16:25:41.664Z,14.03
2023-03-12T16:28:11.956Z,14.02
2023-03-12T16:30:38.296Z,13.96
2023-03-12T16:33:08.904Z,13.87
2023-03-12T16:35:35.969Z,13.82
2023-03-12T16:38:03.134Z,13.85
2023-03-12T16:40:34.311Z,13.82
2023-03-12T16:43:06.610Z,13.71
2023-03-12T16:45:37.127Z,13.60
2023-03-12T16:48:06.627Z,13.60
2023-03-12T16:50:33.066Z,13.50
2023-03-12T16:52:59.853Z,13.43
2023-03-12T16:55:29.651Z,13.39
2023-03-12T16:58:00.220Z,13.29
2023-03-12T17:00:32.987Z,13.31
2023-03-12T17:02:59.797Z,13.11
2023-03-12T17:05:28.772Z,13.11
2023-03-12T17:07:56.049Z,13.03
2023-03-12T17:10:23.520Z,12.92
2023-03-12T17:12:50.739Z,12.83
2023-03-12T17:15:21.508Z,12.91
2023-03-12T17:17:49.452Z,12.84
2023-03-12T17:20:18.868Z,12.70
2023-03-12T17:22:45.799Z,12.82
2023-03-12T17:25:20.418Z,12.92
2023-03-12T17:27:46.781Z,12.94
2023-03-12T17:30:13.463Z,12.92
2023-03-12T17:32:40.019Z,12.86
2023-03-12T17:35:06.988Z,12.78
2023-03-12T17:37:34.449Z,12.69
2023-03-12T17:40:01.650Z,12.51
2023-03-12T17:42:28.316Z,12.44
2023-03-12T17:44:54.695Z,12.48
2023-03-12T17:47:21.069Z,12.52
2023-03-12T17:49:47.391Z,12.63
2023-03-12T17:52:13.822Z,12.62
2023-03-12T17:54:40.316Z,12.63
2023-03-12T17:57:06.686Z,12.51
2023-03-12T17:59:33.036Z,12.38
2023-03-12T18:01:59.517Z,12.28
2023-03-12T18:04:25.924Z,12.24
2023-03-12T18:06:52.338Z,12.25
2023-03-12T18:09:18.742Z,12.13
2023-03-12T18:11:45.177Z,12.09
2023-03-12T18:14:11.594Z,12.02
2023-03-12T18:16:38.241Z,11.98
2023-03-12T18:19:04.672Z,11.95
2023-03-12T18:21:31.032Z,12.07
2023-03-12T18:24:02.075Z,11.98
2023-03-12T18:26:34.656Z,12.12
2023-03-12T18:29:03.906Z,12.07
2023-03-12T18:31:30.293Z,12.03
2023-03-12T18:33:56.746Z,11.96
2023-03-12T18:36:23.154Z,11.92
2023-03-12T18:38:49.520Z,11.87
2023-03-12T18:41:16.199Z,11.97
2023-03-12T18:43:42.634Z,11.98
2023-03-12T18:46:09.350Z,11.90
2023-03-12T18:48:35.969Z,11.81
2023-03-12T18:51:02.366Z,11.80
2023-03-12T18:53:29.189Z,11.79
2023-03-12T18:55:57.809Z,11.78
2023-03-12T18:58:25.910Z,11.74
2023-03-12T19:00:56.888Z,11.72
2023-03-12T19:03:23.776Z,11.68
2023-03-12T19:06:04.869Z,11.79
2023-03-12T19:08:31.602Z,11.63
2023-03-12T19:10:58.264Z,11.57
2023-03-12T19:13:24.767Z,11.61
2023-03-12T19:15:57.959Z,11.65
2023-03-12T19:18:24.241Z,11.63
2023-03-12T19:20:50.694Z,11.56
2023-03-12T19:23:17.103Z,11.43
2023-03-12T19:25:43.482Z,11.42
2023-03-12T19:28:09.820Z,11.56
2023-03-12T19:30:36.223Z,11.56
2023-03-12T19:33:03.639Z,11.43
2023-03-12T19:35:30.170Z,11.37
2023-03-12T19:37:59.389Z,11.40
2023-03-12T19:40:25.840Z,11.31
2023-03-12T19:42:52.196Z,11.29
2023-03-12T19:45:18.637Z,11.26
2023-03-12T19:47:45.021Z,11.23
2023-03-12T19:50:12.322Z,11.29
2023-03-12T19:52:38.783Z,11.33
2023-03-12T19:55:05.949Z,11.33
2023-03-12T19:57:34.460Z,11.37
2023-03-12T20:00:00.913Z,11.30
2023-03-12T20:02:27.411Z,11.27
2023-03-12T20:04:55.210Z,11.23
2023-03-12T20:07:21.642Z,10.94
2023-03-12T20:09:48.059Z,10.81
2023-03-12T20:12:14.552Z,10.70
2023-03-12T20:14:42.805Z,10.57
2023-03-12T20:17:09.869Z,10.52
2023-03-12T20:19:36.303Z,10.52
2023-03-12T20:22:02.693Z,10.62
2023-03-12T20:24:29.155Z,10.52
2023-03-12T20:26:55.544Z,10.48
2023-03-12T20:29:22.054Z,10.55
2023-03-12T20:31:48.551Z,10.50
2023-03-12T20:34:15.004Z,10.45
2023-03-12T20:36:41.440Z,10.36
2023-03-12T20:39:07.954Z,10.28
2023-03-12T20:41:34.442Z,10.26
2023-03-12T20:44:00.853Z,10.27
2023-03-12T20:46:27.727Z,10.23
2023-03-12T20:48:56.640Z,10.36
2023-03-12T20:51:24.661Z,10.43
2023-03-12T20:53:51.113Z,10.25
2023-03-12T20:56:17.480Z,10.29
2023-03-12T20:58:43.873Z,10.22
2023-03-12T21:01:10.869Z,10.15
2023-03-12T21:03:37.470Z,10.02
2023-03-12T21:06:04.190Z,9.97
2023-03-12T21:08:30.867Z,10.02
2023-03-12T21:10:57.261Z,10.00
2023-03-12T21:13:24.073Z,9.99
2023-03-12T21:15:52.024Z,9.81
2023-03-12T21:18:18.993Z,9.79
2023-03-12T21:20:45.658Z,9.79
2023-03-12T21:23:12.225Z,9.67
2023-03-12T21:25:40.799Z,9.78
2023-03-12T21:28:08.493Z,9.84
2023-03-12T21:30:35.037Z,9.88
2023-03-12T21:33:02.634Z,9.84
2023-03-12T21:35:29.275Z,9.88
2023-03-12T21:37:58.969Z,9.92
2023-03-12T21:40:25.402Z,9.81
2023-03-12T21:42:51.773Z,9.84
2023-03-12T21:45:18.218Z,9.81
2023-03-12T21:47:44.655Z,9.69
2023-03-12T21:50:11.696Z,9.65
2023-03-12T21:52:43.721Z,9.63
2023-03-12T21:55:10.528Z,9.60
2023-03-12T21:57:36.932Z,9.48
2023-03-12T22:00:04.538Z,9.50
2023-03-12T22:02:31.611Z,9.48
2023-03-12T22:05:01.064Z,9.61
2023-03-12T22:07:29.941Z,9.49
2023-03-12T22:09:56.768Z,9.52
2023-03-12T22:12:23.270Z,9.47
2023-03-12T22:14:49.681Z,9.44
2023-03-12T22:17:17.056Z,9.35
2023-03-12T22:19:43.954Z,9.37
2023-03-12T22:22:11.063Z,9.28
2023-03-12T22:24:37.545Z,9.43
2023-03-12T22:27:06.469Z,9.50
2023-03-12T22:29:33.723Z,9.45
2023-03-12T22:32:00.129Z,9.32
2023-03-12T22:34:26.598Z,9.23
2023-03-12T22:36:52.990Z,9.25
2023-03-12T22:39:19.797Z,9.27
2023-03-12T22:41:50.538Z,9.27
2023-03-12T22:44:16.942Z,9.37
2023-03-12T22:46:43.350Z,9.23
2023-03-12T22:49:09.769Z,9.51
2023-03-12T22:51:36.209Z,9.55
2023-03-12T22:54:02.654Z,9.30
2023-03-12T22:56:29.334Z,9.22
2023-03-12T22:58:55.948Z,9.41
2023-03-12T23:01:23.417Z,9.30
2023-03-12T23:03:50.077Z,9.17
2023-03-12T23:06:22.464Z,9.22
2023-03-12T23:08:49.636Z,9.00
2023-03-12T23:11:17.382Z,8.95
2023-03-12T23:13:45.730Z,9.00
2023-03-12T23:16:16.533Z,8.98
2023-03-12T23:18:43.135Z,8.81
2023-03-12T23:21:12.316Z,8.70
2023-03-12T23:23:41.115Z,8.67
2023-03-12T23:26:07.949Z,8.85
2023-03-12T23:28:34.419Z,8.77
2023-03-12T23:31:03.634Z,8.74
2023-03-12T23:33:31.326Z,8.60
2023-03-12T23:36:00.904Z,8.62
2023-03-12T23:38:29.222Z,8.72
2023-03-12T23:41:03.498Z,8.65
2023-03-12T23:43:30.234Z,8.67
2023-03-12T23:46:01.736Z,8.71
2023-03-12T23:48:30.363Z,8.84
2023-03-12T23:51:12.045Z,8.92
2023-03-12T23:53:42.293Z,8.85
2023-03-12T23:56:11.923Z,8.83
2023-03-12T23:58:38.809Z,8.80
